sensor_id;sensor_type;location;lat;lon;timestamp;pressure;altitude;pressure_sealevel;temperature;humidity
77351;BME280;66420;50.246;14.320;2023-03-24T00:02:13;98858.13;;;11.53;70.81
77351;BME280;66420;50.246;14.320;2023-03-24T00:05:00;98848.22;;;11.61;69.90
77351;BME280;66420;50.246;14.320;2023-03-24T00:07:45;98854.56;;;11.52;70.57
77351;BME280;66420;50.246;14.320;2023-03-24T00:10:30;98841.50;;;11.58;70.04
77351;BME280;66420;50.246;14.320;2023-03-24T00:13:18;98842.88;;;11.64;69.62
77351;BME280;66420;50.246;14.320;2023-03-24T00:16:05;98843.25;;;11.63;70.54
77351;BME280;66420;50.246;14.320;2023-03-24T00:18:50;98840.00;;;11.61;70.87
77351;BME280;66420;50.246;14.320;2023-03-24T00:21:36;98841.63;;;11.62;69.95
77351;BME280;66420;50.246;14.320;2023-03-24T00:24:21;98834.81;;;11.68;69.69
77351;BME280;66420;50.246;14.320;2023-03-24T00:27:06;98836.72;;;11.76;69.38
77351;BME280;66420;50.246;14.320;2023-03-24T00:29:51;98828.44;;;11.84;68.62
77351;BME280;66420;50.246;14.320;2023-03-24T00:32:36;98824.00;;;12.13;67.47
77351;BME280;66420;50.246;14.320;2023-03-24T00:35:22;98817.41;;;12.26;67.78
77351;BME280;66420;50.246;14.320;2023-03-24T00:38:07;98808.19;;;12.30;67.17
77351;BME280;66420;50.246;14.320;2023-03-24T00:40:52;98813.97;;;12.62;65.44
77351;BME280;66420;50.246;14.320;2023-03-24T00:43:36;98811.28;;;12.74;64.68
77351;BME280;66420;50.246;14.320;2023-03-24T00:46:21;98815.16;;;12.73;64.81
77351;BME280;66420;50.246;14.320;2023-03-24T00:49:12;98808.06;;;12.72;65.11
77351;BME280;66420;50.246;14.320;2023-03-24T00:51:58;98800.88;;;12.92;64.48
77351;BME280;66420;50.246;14.320;2023-03-24T00:54:49;98800.75;;;13.00;63.89
77351;BME280;66420;50.246;14.320;2023-03-24T00:57:34;98800.50;;;12.93;64.27
77351;BME280;66420;50.246;14.320;2023-03-24T01:00:22;98792.97;;;12.90;64.09
77351;BME280;66420;50.246;14.320;2023-03-24T01:03:07;98792.97;;;12.90;63.77
77351;BME280;66420;50.246;14.320;2023-03-24T01:05:54;98783.34;;;12.84;63.70
77351;BME280;66420;50.246;14.320;2023-03-24T01:08:40;98792.63;;;12.92;64.06
77351;BME280;66420;50.246;14.320;2023-03-24T01:11:26;98790.25;;;13.14;62.38
77351;BME280;66420;50.246;14.320;2023-03-24T01:14:12;98786.56;;;13.10;62.70
77351;BME280;66420;50.246;14.320;2023-03-24T01:16:57;98796.09;;;13.13;62.98
77351;BME280;66420;50.246;14.320;2023-03-24T01:19:41;98790.69;;;13.16;62.58
77351;BME280;66420;50.246;14.320;2023-03-24T01:22:28;98798.16;;;13.28;61.53
77351;BME280;66420;50.246;14.320;2023-03-24T01:25:16;98783.72;;;13.19;62.46
77351;BME280;66420;50.246;14.320;2023-03-24T01:28:02;98789.34;;;13.22;62.51
77351;BME280;66420;50.246;14.320;2023-03-24T01:30:47;98777.78;;;13.17;62.29
77351;BME280;66420;50.246;14.320;2023-03-24T01:33:31;98777.06;;;13.32;61.66
77351;BME280;66420;50.246;14.320;2023-03-24T01:36:16;98778.56;;;13.29;62.60
77351;BME280;66420;50.246;14.320;2023-03-24T01:39:01;98767.31;;;13.35;61.86
77351;BME280;66420;50.246;14.320;2023-03-24T01:41:47;98767.34;;;13.22;61.97
77351;BME280;66420;50.246;14.320;2023-03-24T01:44:34;98765.03;;;13.24;61.92
77351;BME280;66420;50.246;14.320;2023-03-24T01:47:19;98763.81;;;13.22;62.16
77351;BME280;66420;50.246;14.320;2023-03-24T01:50:04;98753.38;;;13.27;61.81
77351;BME280;66420;50.246;14.320;2023-03-24T01:52:50;98753.16;;;13.20;61.90
77351;BME280;66420;50.246;14.320;2023-03-24T01:55:34;98753.38;;;13.15;62.69
77351;BME280;66420;50.246;14.320;2023-03-24T01:58:22;98753.94;;;13.21;61.90
77351;BME280;66420;50.246;14.320;2023-03-24T02:01:07;98747.19;;;13.30;62.05
77351;BME280;66420;50.246;14.320;2023-03-24T02:03:53;98748.31;;;13.29;61.59
77351;BME280;66420;50.246;14.320;2023-03-24T02:06:41;98745.38;;;13.22;62.09
77351;BME280;66420;50.246;14.320;2023-03-24T02:09:27;98741.91;;;13.25;61.87
77351;BME280;66420;50.246;14.320;2023-03-24T02:12:12;98731.16;;;13.20;61.83
77351;BME280;66420;50.246;14.320;2023-03-24T02:14:57;98719.75;;;13.18;62.96
77351;BME280;66420;50.246;14.320;2023-03-24T02:18:04;98723.13;;;13.40;61.62
77351;BME280;66420;50.246;14.320;2023-03-24T02:27:42;98716.75;;;13.11;62.66
77351;BME280;66420;50.246;14.320;2023-03-24T02:37:37;98716.28;;;13.21;62.78
77351;BME280;66420;50.246;14.320;2023-03-24T02:43:32;98715.38;;;13.17;62.27
77351;BME280;66420;50.246;14.320;2023-03-24T02:46:49;98712.63;;;13.17;62.56
77351;BME280;66420;50.246;14.320;2023-03-24T02:49:45;98715.81;;;13.07;63.58
77351;BME280;66420;50.246;14.320;2023-03-24T02:52:48;98712.16;;;13.03;63.76
77351;BME280;66420;50.246;14.320;2023-03-24T02:55:41;98713.09;;;12.95;62.98
77351;BME280;66420;50.246;14.320;2023-03-24T02:58:37;98706.91;;;12.98;63.78
77351;BME280;66420;50.246;14.320;2023-03-24T03:01:31;98708.97;;;12.89;63.93
77351;BME280;66420;50.246;14.320;2023-03-24T03:04:29;98706.09;;;12.98;63.61
77351;BME280;66420;50.246;14.320;2023-03-24T03:07:20;98709.06;;;12.93;63.90
77351;BME280;66420;50.246;14.320;2023-03-24T03:12:55;98707.16;;;12.81;63.80
77351;BME280;66420;50.246;14.320;2023-03-24T03:15:44;98710.56;;;12.90;63.88
77351;BME280;66420;50.246;14.320;2023-03-24T03:18:54;98712.06;;;12.75;64.18
77351;BME280;66420;50.246;14.320;2023-03-24T03:21:40;98706.69;;;12.67;64.66
77351;BME280;66420;50.246;14.320;2023-03-24T03:24:30;98710.34;;;12.59;65.22
77351;BME280;66420;50.246;14.320;2023-03-24T03:27:28;98719.28;;;12.68;64.95
77351;BME280;66420;50.246;14.320;2023-03-24T03:30:18;98715.50;;;12.60;65.37
77351;BME280;66420;50.246;14.320;2023-03-24T03:33:12;98705.53;;;12.56;65.08
77351;BME280;66420;50.246;14.320;2023-03-24T03:36:03;98707.25;;;12.48;66.35
77351;BME280;66420;50.246;14.320;2023-03-24T03:38:56;98697.88;;;12.49;65.69
77351;BME280;66420;50.246;14.320;2023-03-24T03:41:44;98707.94;;;12.45;65.78
77351;BME280;66420;50.246;14.320;2023-03-24T03:44:30;98702.91;;;12.47;65.83
77351;BME280;66420;50.246;14.320;2023-03-24T03:47:15;98702.78;;;12.43;66.08
77351;BME280;66420;50.246;14.320;2023-03-24T03:50:00;98697.19;;;12.40;66.39
77351;BME280;66420;50.246;14.320;2023-03-24T03:52:45;98707.34;;;12.39;66.18
77351;BME280;66420;50.246;14.320;2023-03-24T03:55:30;98705.31;;;12.36;66.35
77351;BME280;66420;50.246;14.320;2023-03-24T03:58:15;98706.66;;;12.30;66.84
77351;BME280;66420;50.246;14.320;2023-03-24T04:01:01;98702.56;;;12.36;66.16
77351;BME280;66420;50.246;14.320;2023-03-24T04:07:07;98706.47;;;12.60;64.85
77351;BME280;66420;50.246;14.320;2023-03-24T04:12:59;98709.56;;;12.58;65.27
77351;BME280;66420;50.246;14.320;2023-03-24T04:16:07;98697.31;;;12.80;64.24
77351;BME280;66420;50.246;14.320;2023-03-24T04:27:43;98695.13;;;12.98;63.14
77351;BME280;66420;50.246;14.320;2023-03-24T04:30:40;98700.97;;;12.84;63.71
77351;BME280;66420;50.246;14.320;2023-03-24T04:33:41;98694.56;;;12.92;63.46
77351;BME280;66420;50.246;14.320;2023-03-24T04:39:36;98688.16;;;12.76;64.32
77351;BME280;66420;50.246;14.320;2023-03-24T04:42:38;98690.66;;;12.81;64.24
77351;BME280;66420;50.246;14.320;2023-03-24T04:45:24;98695.94;;;12.74;64.68
77351;BME280;66420;50.246;14.320;2023-03-24T04:48:09;98691.81;;;12.68;64.44
77351;BME280;66420;50.246;14.320;2023-03-24T04:50:58;98678.31;;;12.63;65.32
77351;BME280;66420;50.246;14.320;2023-03-24T04:53:44;98679.03;;;12.60;65.12
77351;BME280;66420;50.246;14.320;2023-03-24T04:56:45;98674.34;;;12.60;65.12
77351;BME280;66420;50.246;14.320;2023-03-24T04:59:33;98665.97;;;12.57;65.51
77351;BME280;66420;50.246;14.320;2023-03-24T05:02:18;98659.56;;;12.53;65.52
77351;BME280;66420;50.246;14.320;2023-03-24T05:05:02;98649.97;;;12.59;65.53
77351;BME280;66420;50.246;14.320;2023-03-24T05:07:47;98643.09;;;12.53;65.16
77351;BME280;66420;50.246;14.320;2023-03-24T05:10:33;98643.66;;;12.58;65.63
77351;BME280;66420;50.246;14.320;2023-03-24T05:13:18;98634.63;;;12.58;65.65
77351;BME280;66420;50.246;14.320;2023-03-24T05:16:03;98626.50;;;12.61;65.75
77351;BME280;66420;50.246;14.320;2023-03-24T05:18:48;98623.19;;;12.56;66.31
77351;BME280;66420;50.246;14.320;2023-03-24T05:21:33;98633.38;;;12.67;65.06
77351;BME280;66420;50.246;14.320;2023-03-24T05:24:19;98633.84;;;12.69;65.01
77351;BME280;66420;50.246;14.320;2023-03-24T05:27:04;98621.69;;;12.70;65.47
77351;BME280;66420;50.246;14.320;2023-03-24T05:29:48;98629.94;;;12.70;65.66
77351;BME280;66420;50.246;14.320;2023-03-24T05:32:34;98627.06;;;12.79;64.91
77351;BME280;66420;50.246;14.320;2023-03-24T05:35:18;98622.22;;;12.88;64.50
77351;BME280;66420;50.246;14.320;2023-03-24T05:38:03;98622.50;;;12.83;64.42
77351;BME280;66420;50.246;14.320;2023-03-24T05:40:48;98621.00;;;12.85;64.50
77351;BME280;66420;50.246;14.320;2023-03-24T05:43:33;98628.09;;;12.86;64.19
77351;BME280;66420;50.246;14.320;2023-03-24T05:46:18;98633.22;;;12.88;64.69
77351;BME280;66420;50.246;14.320;2023-03-24T05:49:02;98632.78;;;12.86;64.20
77351;BME280;66420;50.246;14.320;2023-03-24T05:51:47;98629.34;;;12.77;64.99
77351;BME280;66420;50.246;14.320;2023-03-24T05:54:31;98632.44;;;12.75;65.75
77351;BME280;66420;50.246;14.320;2023-03-24T05:57:18;98631.16;;;12.85;64.40
77351;BME280;66420;50.246;14.320;2023-03-24T06:00:05;98619.28;;;12.81;65.18
77351;BME280;66420;50.246;14.320;2023-03-24T06:02:52;98623.97;;;12.80;65.46
77351;BME280;66420;50.246;14.320;2023-03-24T06:05:37;98618.59;;;12.84;64.61
77351;BME280;66420;50.246;14.320;2023-03-24T06:08:22;98622.38;;;12.79;64.67
77351;BME280;66420;50.246;14.320;2023-03-24T06:11:08;98613.09;;;12.84;64.60
77351;BME280;66420;50.246;14.320;2023-03-24T06:13:53;98612.84;;;13.01;64.16
77351;BME280;66420;50.246;14.320;2023-03-24T06:16:42;98610.66;;;12.95;64.92
77351;BME280;66420;50.246;14.320;2023-03-24T06:19:27;98608.25;;;13.05;64.62
77351;BME280;66420;50.246;14.320;2023-03-24T06:22:18;98609.72;;;13.03;65.21
77351;BME280;66420;50.246;14.320;2023-03-24T06:25:03;98615.13;;;12.99;65.94
77351;BME280;66420;50.246;14.320;2023-03-24T06:27:48;98603.56;;;13.06;66.40
77351;BME280;66420;50.246;14.320;2023-03-24T06:30:32;98599.78;;;13.10;65.08
77351;BME280;66420;50.246;14.320;2023-03-24T06:33:17;98598.63;;;13.11;65.17
77351;BME280;66420;50.246;14.320;2023-03-24T06:36:02;98602.50;;;13.22;64.03
77351;BME280;66420;50.246;14.320;2023-03-24T06:38:47;98599.78;;;13.10;65.60
77351;BME280;66420;50.246;14.320;2023-03-24T06:41:33;98597.81;;;13.11;65.39
77351;BME280;66420;50.246;14.320;2023-03-24T06:44:18;98600.69;;;13.14;65.85
77351;BME280;66420;50.246;14.320;2023-03-24T06:47:03;98605.72;;;13.12;66.41
77351;BME280;66420;50.246;14.320;2023-03-24T06:49:48;98608.25;;;13.05;66.58
77351;BME280;66420;50.246;14.320;2023-03-24T06:52:33;98602.91;;;12.97;67.12
77351;BME280;66420;50.246;14.320;2023-03-24T06:55:18;98602.34;;;12.91;66.42
77351;BME280;66420;50.246;14.320;2023-03-24T06:58:03;98603.00;;;13.00;66.08
77351;BME280;66420;50.246;14.320;2023-03-24T07:00:48;98596.38;;;13.01;66.86
77351;BME280;66420;50.246;14.320;2023-03-24T07:03:34;98589.25;;;13.00;66.51
77351;BME280;66420;50.246;14.320;2023-03-24T07:06:20;98590.16;;;13.04;67.60
77351;BME280;66420;50.246;14.320;2023-03-24T07:09:06;98583.06;;;13.03;67.30
77351;BME280;66420;50.246;14.320;2023-03-24T07:11:51;98586.06;;;12.98;66.78
77351;BME280;66420;50.246;14.320;2023-03-24T07:14:36;98587.19;;;12.97;66.75
77351;BME280;66420;50.246;14.320;2023-03-24T07:17:20;98583.78;;;13.00;67.14
77351;BME280;66420;50.246;14.320;2023-03-24T07:20:05;98592.78;;;13.13;66.61
77351;BME280;66420;50.246;14.320;2023-03-24T07:22:55;98593.59;;;13.13;67.25
77351;BME280;66420;50.246;14.320;2023-03-24T07:25:41;98592.78;;;13.13;67.07
77351;BME280;66420;50.246;14.320;2023-03-24T07:28:25;98586.25;;;13.17;66.80
77351;BME280;66420;50.246;14.320;2023-03-24T07:31:10;98589.50;;;13.35;67.13
77351;BME280;66420;50.246;14.320;2023-03-24T07:33:55;98583.00;;;13.27;66.97
77351;BME280;66420;50.246;14.320;2023-03-24T07:36:41;98571.41;;;13.34;66.55
77351;BME280;66420;50.246;14.320;2023-03-24T07:39:25;98577.03;;;13.38;67.22
77351;BME280;66420;50.246;14.320;2023-03-24T07:42:11;98582.69;;;13.45;66.48
77351;BME280;66420;50.246;14.320;2023-03-24T07:44:55;98582.78;;;13.48;66.44
77351;BME280;66420;50.246;14.320;2023-03-24T07:47:43;98578.97;;;13.53;65.22
77351;BME280;66420;50.246;14.320;2023-03-24T07:50:28;98581.47;;;13.58;64.81
77351;BME280;66420;50.246;14.320;2023-03-24T07:53:13;98580.50;;;13.66;66.04
77351;BME280;66420;50.246;14.320;2023-03-24T07:56:01;98569.47;;;13.78;66.28
77351;BME280;66420;50.246;14.320;2023-03-24T07:58:46;98570.72;;;13.96;63.46
77351;BME280;66420;50.246;14.320;2023-03-24T08:01:31;98568.22;;;14.07;63.78
77351;BME280;66420;50.246;14.320;2023-03-24T08:04:16;98560.75;;;14.23;61.76
77351;BME280;66420;50.246;14.320;2023-03-24T08:07:01;98552.66;;;14.46;61.57
77351;BME280;66420;50.246;14.320;2023-03-24T08:09:46;98549.63;;;14.51;61.54
77351;BME280;66420;50.246;14.320;2023-03-24T08:12:31;98548.88;;;14.70;59.71
77351;BME280;66420;50.246;14.320;2023-03-24T08:15:15;98559.53;;;14.90;59.52
77351;BME280;66420;50.246;14.320;2023-03-24T08:18:00;98550.13;;;14.91;59.17
77351;BME280;66420;50.246;14.320;2023-03-24T08:20:45;98551.34;;;15.13;58.58
77351;BME280;66420;50.246;14.320;2023-03-24T08:23:30;98559.63;;;15.13;59.43
77351;BME280;66420;50.246;14.320;2023-03-24T08:26:15;98549.97;;;15.23;57.57
77351;BME280;66420;50.246;14.320;2023-03-24T08:29:01;98547.66;;;15.25;59.02
77351;BME280;66420;50.246;14.320;2023-03-24T08:31:46;98546.75;;;15.40;57.61
77351;BME280;66420;50.246;14.320;2023-03-24T08:34:31;98534.28;;;15.65;56.79
77351;BME280;66420;50.246;14.320;2023-03-24T08:37:16;98542.25;;;15.70;57.33
77351;BME280;66420;50.246;14.320;2023-03-24T08:40:00;98539.50;;;15.70;57.63
77351;BME280;66420;50.246;14.320;2023-03-24T08:42:57;98548.13;;;15.91;56.03
77351;BME280;66420;50.246;14.320;2023-03-24T08:45:43;98542.22;;;16.16;55.00
77351;BME280;66420;50.246;14.320;2023-03-24T08:48:29;98538.84;;;16.26;54.75
77351;BME280;66420;50.246;14.320;2023-03-24T08:51:16;98538.63;;;16.38;54.14
77351;BME280;66420;50.246;14.320;2023-03-24T08:54:00;98541.16;;;16.50;54.20
77351;BME280;66420;50.246;14.320;2023-03-24T08:56:47;98535.66;;;16.50;54.25
77351;BME280;66420;50.246;14.320;2023-03-24T08:59:32;98543.63;;;16.55;53.35
77351;BME280;66420;50.246;14.320;2023-03-24T09:02:16;98539.09;;;16.66;52.79
77351;BME280;66420;50.246;14.320;2023-03-24T09:05:01;98537.47;;;16.65;52.98
77351;BME280;66420;50.246;14.320;2023-03-24T09:07:47;98543.81;;;16.66;52.82
77351;BME280;66420;50.246;14.320;2023-03-24T09:10:33;98542.25;;;16.68;53.14
77351;BME280;66420;50.246;14.320;2023-03-24T09:13:19;98533.97;;;16.68;52.94
77351;BME280;66420;50.246;14.320;2023-03-24T09:16:04;98527.31;;;16.73;53.15
77351;BME280;66420;50.246;14.320;2023-03-24T09:18:49;98516.53;;;16.91;51.83
77351;BME280;66420;50.246;14.320;2023-03-24T09:21:34;98519.13;;;16.80;52.55
77351;BME280;66420;50.246;14.320;2023-03-24T09:24:20;98522.81;;;16.91;52.42
77351;BME280;66420;50.246;14.320;2023-03-24T09:27:04;98512.22;;;16.97;52.26
77351;BME280;66420;50.246;14.320;2023-03-24T09:29:50;98515.59;;;17.13;51.83
77351;BME280;66420;50.246;14.320;2023-03-24T09:32:37;98510.53;;;17.18;51.59
77351;BME280;66420;50.246;14.320;2023-03-24T09:35:22;98513.72;;;17.20;52.15
77351;BME280;66420;50.246;14.320;2023-03-24T09:38:06;98512.44;;;17.14;51.57
77351;BME280;66420;50.246;14.320;2023-03-24T09:40:57;98523.13;;;17.16;51.70
77351;BME280;66420;50.246;14.320;2023-03-24T09:43:51;98528.69;;;17.19;50.36
77351;BME280;66420;50.246;14.320;2023-03-24T09:46:46;98521.47;;;17.08;50.65
77351;BME280;66420;50.246;14.320;2023-03-24T09:49:36;98521.88;;;17.10;51.07
77351;BME280;66420;50.246;14.320;2023-03-24T09:52:28;98526.00;;;17.23;50.86
77351;BME280;66420;50.246;14.320;2023-03-24T09:55:20;98509.69;;;17.14;51.60
77351;BME280;66420;50.246;14.320;2023-03-24T09:58:07;98516.94;;;17.26;50.77
77351;BME280;66420;50.246;14.320;2023-03-24T10:00:55;98521.31;;;17.27;51.27
77351;BME280;66420;50.246;14.320;2023-03-24T10:03:41;98512.66;;;17.32;50.89
77351;BME280;66420;50.246;14.320;2023-03-24T10:06:29;98525.69;;;17.32;51.12
77351;BME280;66420;50.246;14.320;2023-03-24T10:09:25;98525.22;;;17.26;50.92
77351;BME280;66420;50.246;14.320;2023-03-24T10:12:41;98521.66;;;17.25;51.60
77351;BME280;66420;50.246;14.320;2023-03-24T10:15:34;98523.13;;;17.16;51.90
77351;BME280;66420;50.246;14.320;2023-03-24T10:18:34;98530.59;;;17.12;52.20
77351;BME280;66420;50.246;14.320;2023-03-24T10:21:26;98537.63;;;17.06;52.54
77351;BME280;66420;50.246;14.320;2023-03-24T10:24:43;98541.75;;;16.89;52.60
77351;BME280;66420;50.246;14.320;2023-03-24T10:27:36;98549.56;;;16.83;52.60
77351;BME280;66420;50.246;14.320;2023-03-24T10:30:34;98552.69;;;16.82;52.97
77351;BME280;66420;50.246;14.320;2023-03-24T10:33:22;98542.72;;;16.74;54.16
77351;BME280;66420;50.246;14.320;2023-03-24T10:38:54;98556.44;;;16.40;56.59
77351;BME280;66420;50.246;14.320;2023-03-24T10:41:41;98548.41;;;16.32;57.44
77351;BME280;66420;50.246;14.320;2023-03-24T10:44:26;98546.75;;;16.27;57.98
77351;BME280;66420;50.246;14.320;2023-03-24T10:47:12;98543.53;;;16.48;57.65
77351;BME280;66420;50.246;14.320;2023-03-24T10:49:59;98535.56;;;16.43;56.82
77351;BME280;66420;50.246;14.320;2023-03-24T10:52:46;98538.81;;;16.49;57.01
77351;BME280;66420;50.246;14.320;2023-03-24T10:55:37;98544.50;;;16.59;55.87
77351;BME280;66420;50.246;14.320;2023-03-24T10:58:35;98557.19;;;16.64;56.07
77351;BME280;66420;50.246;14.320;2023-03-24T11:04:13;98550.88;;;16.63;56.15
77351;BME280;66420;50.246;14.320;2023-03-24T11:07:32;98542.03;;;16.54;56.12
77351;BME280;66420;50.246;14.320;2023-03-24T11:10:26;98541.09;;;16.69;56.12
77351;BME280;66420;50.246;14.320;2023-03-24T11:13:19;98531.97;;;16.65;55.41
77351;BME280;66420;50.246;14.320;2023-03-24T11:16:08;98541.84;;;16.66;55.50
77351;BME280;66420;50.246;14.320;2023-03-24T11:18:57;98536.72;;;16.68;55.57
77351;BME280;66420;50.246;14.320;2023-03-24T11:21:42;98545.44;;;16.70;55.92
77351;BME280;66420;50.246;14.320;2023-03-24T11:24:28;98552.53;;;16.68;55.07
77351;BME280;66420;50.246;14.320;2023-03-24T11:27:14;98560.47;;;16.73;55.62
77351;BME280;66420;50.246;14.320;2023-03-24T11:30:00;98555.53;;;16.59;54.50
77351;BME280;66420;50.246;14.320;2023-03-24T11:32:46;98563.06;;;16.59;55.18
77351;BME280;66420;50.246;14.320;2023-03-24T11:35:32;98550.97;;;16.44;53.92
77351;BME280;66420;50.246;14.320;2023-03-24T11:38:19;98546.44;;;16.32;55.47
77351;BME280;66420;50.246;14.320;2023-03-24T11:41:18;98557.47;;;16.32;55.16
77351;BME280;66420;50.246;14.320;2023-03-24T11:44:20;98559.38;;;16.28;55.13
77351;BME280;66420;50.246;14.320;2023-03-24T11:50:16;98558.81;;;16.16;55.50
77351;BME280;66420;50.246;14.320;2023-03-24T11:53:10;98561.06;;;16.10;55.12
77351;BME280;66420;50.246;14.320;2023-03-24T11:58:49;98549.63;;;16.08;55.36
77351;BME280;66420;50.246;14.320;2023-03-24T12:01:38;98552.25;;;16.01;55.41
77351;BME280;66420;50.246;14.320;2023-03-24T12:05:19;98556.56;;;15.99;55.63
77351;BME280;66420;50.246;14.320;2023-03-24T12:08:18;98554.50;;;15.95;55.70
77351;BME280;66420;50.246;14.320;2023-03-24T12:11:13;98541.00;;;15.90;56.12
77351;BME280;66420;50.246;14.320;2023-03-24T12:14:00;98550.53;;;15.93;56.86
77351;BME280;66420;50.246;14.320;2023-03-24T12:16:50;98545.81;;;15.93;56.04
77351;BME280;66420;50.246;14.320;2023-03-24T12:31:53;98549.00;;;15.95;57.07
77351;BME280;66420;50.246;14.320;2023-03-24T12:35:33;98547.34;;;15.91;57.22
77351;BME280;66420;50.246;14.320;2023-03-24T13:04:34;98539.75;;;15.84;56.95
77351;BME280;66420;50.246;14.320;2023-03-24T13:07:22;98531.03;;;15.82;56.34
77351;BME280;66420;50.246;14.320;2023-03-24T13:10:16;98532.19;;;15.81;57.69
77351;BME280;66420;50.246;14.320;2023-03-24T13:13:17;98529.75;;;15.76;57.98
77351;BME280;66420;50.246;14.320;2023-03-24T13:16:26;98527.84;;;15.80;58.11
77351;BME280;66420;50.246;14.320;2023-03-24T13:19:19;98538.09;;;15.80;58.55
77351;BME280;66420;50.246;14.320;2023-03-24T13:22:13;98532.19;;;15.81;58.53
77351;BME280;66420;50.246;14.320;2023-03-24T13:24:59;98521.34;;;15.69;59.23
77351;BME280;66420;50.246;14.320;2023-03-24T13:27:46;98534.09;;;15.77;59.21
77351;BME280;66420;50.246;14.320;2023-03-24T13:30:37;98503.06;;;15.84;58.86
77351;BME280;66420;50.246;14.320;2023-03-24T13:33:27;98508.25;;;15.85;59.05
77351;BME280;66420;50.246;14.320;2023-03-24T13:39:54;98514.47;;;15.82;57.74
77351;BME280;66420;50.246;14.320;2023-03-24T13:42:51;98495.59;;;15.84;57.17
77351;BME280;66420;50.246;14.320;2023-03-24T13:46:06;98500.38;;;15.87;57.80
77351;BME280;66420;50.246;14.320;2023-03-24T13:48:53;98515.03;;;15.91;57.84
77351;BME280;66420;50.246;14.320;2023-03-24T13:51:45;98513.06;;;15.92;56.99
77351;BME280;66420;50.246;14.320;2023-03-24T13:54:30;98489.38;;;15.91;56.92
77351;BME280;66420;50.246;14.320;2023-03-24T13:57:19;98502.38;;;15.90;57.35
77351;BME280;66420;50.246;14.320;2023-03-24T14:06:06;98503.13;;;15.87;57.28
77351;BME280;66420;50.246;14.320;2023-03-24T14:14:26;98500.91;;;15.96;57.59
77351;BME280;66420;50.246;14.320;2023-03-24T14:17:14;98503.31;;;15.98;57.76
77351;BME280;66420;50.246;14.320;2023-03-24T14:22:48;98485.97;;;15.98;58.30
77351;BME280;66420;50.246;14.320;2023-03-24T14:25:35;98469.50;;;16.05;58.64
77351;BME280;66420;50.246;14.320;2023-03-24T14:28:36;98473.06;;;16.05;58.14
77351;BME280;66420;50.246;14.320;2023-03-24T14:31:30;98463.25;;;16.08;57.83
77351;BME280;66420;50.246;14.320;2023-03-24T14:34:21;98468.78;;;16.08;56.95
77351;BME280;66420;50.246;14.320;2023-03-24T14:37:08;98467.16;;;16.07;56.71
77351;BME280;66420;50.246;14.320;2023-03-24T14:39:55;98463.06;;;15.97;57.88
77351;BME280;66420;50.246;14.320;2023-03-24T14:48:35;98468.88;;;16.15;57.22
77351;BME280;66420;50.246;14.320;2023-03-24T14:54:33;98460.06;;;16.06;57.45
77351;BME280;66420;50.246;14.320;2023-03-24T14:57:25;98447.06;;;16.06;57.47
77351;BME280;66420;50.246;14.320;2023-03-24T15:00:20;98455.84;;;16.15;57.41
77351;BME280;66420;50.246;14.320;2023-03-24T15:03:23;98457.72;;;16.08;57.35
77351;BME280;66420;50.246;14.320;2023-03-24T15:06:14;98452.94;;;16.05;57.71
77351;BME280;66420;50.246;14.320;2023-03-24T15:08:59;98445.13;;;16.10;58.00
77351;BME280;66420;50.246;14.320;2023-03-24T15:11:50;98440.31;;;16.30;57.40
77351;BME280;66420;50.246;14.320;2023-03-24T15:14:35;98444.69;;;16.34;56.86
77351;BME280;66420;50.246;14.320;2023-03-24T15:17:23;98434.53;;;16.42;57.24
77351;BME280;66420;50.246;14.320;2023-03-24T15:20:20;98434.66;;;16.49;57.22
77351;BME280;66420;50.246;14.320;2023-03-24T15:23:06;98431.81;;;16.46;56.68
77351;BME280;66420;50.246;14.320;2023-03-24T15:25:51;98422.69;;;16.41;56.09
77351;BME280;66420;50.246;14.320;2023-03-24T15:28:36;98423.53;;;16.46;56.33
77351;BME280;66420;50.246;14.320;2023-03-24T15:31:22;98415.63;;;16.44;55.85
77351;BME280;66420;50.246;14.320;2023-03-24T15:34:34;98411.25;;;16.39;56.34
77351;BME280;66420;50.246;14.320;2023-03-24T15:37:37;98426.72;;;16.48;56.27
77351;BME280;66420;50.246;14.320;2023-03-24T15:43:19;98421.50;;;16.39;56.92
77351;BME280;66420;50.246;14.320;2023-03-24T15:46:05;98424.13;;;16.32;56.89
77351;BME280;66420;50.246;14.320;2023-03-24T15:48:51;98420.84;;;16.23;57.84
77351;BME280;66420;50.246;14.320;2023-03-24T15:51:48;98420.03;;;16.19;57.42
77351;BME280;66420;50.246;14.320;2023-03-24T15:54:39;98407.81;;;16.20;57.34
77351;BME280;66420;50.246;14.320;2023-03-24T15:57:25;98413.25;;;16.13;57.80
77351;BME280;66420;50.246;14.320;2023-03-24T16:03:00;98429.22;;;16.00;58.51
77351;BME280;66420;50.246;14.320;2023-03-24T16:05:48;98455.38;;;15.83;61.08
77351;BME280;66420;50.246;14.320;2023-03-24T16:08:35;98497.31;;;14.51;68.00
77351;BME280;66420;50.246;14.320;2023-03-24T16:11:24;98485.13;;;12.95;74.39
77351;BME280;66420;50.246;14.320;2023-03-24T16:14:26;98509.59;;;12.32;77.08
77351;BME280;66420;50.246;14.320;2023-03-24T16:17:11;98536.34;;;11.87;79.29
77351;BME280;66420;50.246;14.320;2023-03-24T16:19:56;98525.09;;;11.68;80.27
77351;BME280;66420;50.246;14.320;2023-03-24T16:22:41;98533.88;;;11.61;80.88
77351;BME280;66420;50.246;14.320;2023-03-24T16:25:25;98534.97;;;11.36;80.75
77351;BME280;66420;50.246;14.320;2023-03-24T16:28:16;98514.09;;;11.43;80.43
77351;BME280;66420;50.246;14.320;2023-03-24T16:31:04;98530.53;;;11.55;80.05
77351;BME280;66420;50.246;14.320;2023-03-24T16:33:50;98533.88;;;11.61;80.15
77351;BME280;66420;50.246;14.320;2023-03-24T16:36:35;98551.00;;;11.58;80.43
77351;BME280;66420;50.246;14.320;2023-03-24T16:39:22;98562.28;;;11.44;81.00
77351;BME280;66420;50.246;14.320;2023-03-24T16:42:08;98559.56;;;11.56;79.37
77351;BME280;66420;50.246;14.320;2023-03-24T16:44:52;98583.47;;;11.35;80.99